Time;durP1;ratioP1;P1;durP2;ratioP2;P2;SDS_P1;SDS_P2;PMS_P1;PMS_P2;Temp;Humidity;BMP_temperature;BMP_pressure;BME280_temperature;BME280_humidity;BME280_pressure;Samples;Min_cycle;Max_cycle;Signal;HPM_P1;HPM_P2
2023/08/05 00:01:06;;;;;;;7.33;6.67;;;16.60;99.90;;;;;;5078320;28;20445;-77
2023/08/05 00:03:41;;;;;;;7.50;6.80;;;16.60;99.90;;;;;;5078956;28;20452;-78
2023/08/05 00:06:33;;;;;;;6.63;6.03;;;16.60;99.90;;;;;;5079531;28;20960;-79
2023/08/05 00:09:15;;;;;;;6.23;5.73;;;16.60;99.90;;;;;;5078064;28;21116;-78
2023/08/05 00:11:48;;;;;;;7.83;6.20;;;16.50;99.90;;;;;;5079214;28;20975;-79
2023/08/05 00:14:34;;;;;;;7.03;6.20;;;16.40;99.90;;;;;;5078664;28;20460;-78
2023/08/05 00:17:04;;;;;;;6.77;6.17;;;16.40;99.90;;;;;;5079339;28;20451;-78
2023/08/05 00:19:52;;;;;;;7.93;6.17;;;16.50;99.90;;;;;;5078016;28;20833;-78
2023/08/05 00:22:37;;;;;;;7.27;6.57;;;16.50;99.90;;;;;;5082760;28;20433;-78
2023/08/05 00:39:23;;;;;;;;;;;;;;;;;;;;;
2023/08/05 00:45:27;;;;;;;6.33;5.40;;;16.40;99.90;;;;;;5051601;28;20985;-79
2023/08/05 00:51:49;;;;;;;7.90;6.00;;;16.30;99.90;;;;;;5060150;28;20812;-80
2023/08/05 00:54:29;;;;;;;7.03;6.20;;;16.30;99.90;;;;;;5060792;28;20446;-79
2023/08/05 00:57:26;;;;;;;7.67;5.90;;;16.30;99.90;;;;;;5061449;28;20548;-79
2023/08/05 01:00:30;;;;;;;6.53;6.00;;;16.30;99.90;;;;;;4987907;28;20438;-79
2023/08/05 01:03:25;;;;;;;6.53;5.87;;;16.30;99.90;;;;;;5060958;28;20452;-79
2023/08/05 01:10:37;;;;;;;6.27;5.73;;;16.20;99.90;;;;;;5044040;28;20433;-78
2023/08/05 01:13:50;;;;;;;6.17;5.57;;;16.20;99.90;;;;;;5016353;28;20529;-77
2023/08/05 01:16:37;;;;;;;7.33;6.60;;;16.10;99.90;;;;;;5058310;28;20473;-80
2023/08/05 01:19:20;;;;;;;6.80;5.40;;;16.20;99.90;;;;;;5056882;28;20672;-79
2023/08/05 01:22:05;;;;;;;9.80;5.80;;;16.20;99.90;;;;;;5062793;28;20469;-79
2023/08/05 01:24:49;;;;;;;7.10;5.53;;;16.10;99.90;;;;;;5077623;28;20452;-78
2023/08/05 01:27:30;;;;;;;6.50;6.00;;;16.20;99.90;;;;;;5079417;28;20451;-79
2023/08/05 01:30:10;;;;;;;8.13;5.40;;;16.20;99.90;;;;;;5080434;28;20467;-79
2023/08/05 01:40:00;;;;;;;6.50;5.80;;;16.10;99.90;;;;;;5078199;28;20481;-79
2023/08/05 01:43:17;;;;;;;7.20;5.93;;;16.10;99.90;;;;;;5081967;28;20445;-79
2023/08/05 01:45:52;;;;;;;8.70;5.83;;;16.10;99.90;;;;;;5083191;28;20484;-79
2023/08/05 01:48:48;;;;;;;6.43;5.83;;;16.10;99.90;;;;;;5084035;28;20475;-78
2023/08/05 01:51:39;;;;;;;6.53;5.87;;;16.10;99.90;;;;;;5080874;28;20437;-78
2023/08/05 01:54:18;;;;;;;7.23;5.70;;;16.10;99.90;;;;;;5081567;28;20462;-79
2023/08/05 01:57:02;;;;;;;10.77;6.20;;;16.10;99.90;;;;;;5082497;28;20445;-81
2023/08/05 01:59:42;;;;;;;6.03;5.50;;;16.10;99.90;;;;;;5081831;28;20539;-79
2023/08/05 02:05:15;;;;;;;7.10;5.90;;;16.10;99.90;;;;;;5080634;28;20468;-78
2023/08/05 02:08:09;;;;;;;;;;;;;;;;;;;;;
2023/08/05 02:10:55;;;;;;;6.17;5.57;;;16.10;99.90;;;;;;5078594;28;20440;-77
2023/08/05 02:13:43;;;;;;;8.10;6.87;;;16.10;99.90;;;;;;5077100;28;20537;-79
2023/08/05 02:16:59;;;;;;;6.23;5.60;;;16.10;99.90;;;;;;5076410;28;20473;-77
2023/08/05 02:20:09;;;;;;;6.70;6.03;;;16.10;99.90;;;;;;5077657;28;20559;-78
2023/08/05 02:23:02;;;;;;;7.73;6.23;;;16.10;99.90;;;;;;5065441;28;20445;-78
2023/08/05 02:25:49;;;;;;;6.00;5.40;;;16.10;99.90;;;;;;5056813;28;20484;-78
2023/08/05 02:28:31;;;;;;;8.20;6.27;;;16.10;99.90;;;;;;5043424;28;20437;-78
2023/08/05 02:31:10;;;;;;;6.43;5.83;;;16.10;99.90;;;;;;5056065;28;20452;-80
2023/08/05 02:33:47;;;;;;;7.70;6.37;;;16.00;99.90;;;;;;5054749;28;20449;-77
2023/08/05 02:36:40;;;;;;;6.40;5.80;;;16.00;99.90;;;;;;5055102;28;20820;-78
2023/08/05 02:39:25;;;;;;;6.67;6.07;;;16.00;99.90;;;;;;5055451;28;20481;-79
2023/08/05 02:42:05;;;;;;;8.10;7.30;;;15.90;99.90;;;;;;5057613;28;20457;-78
2023/08/05 02:44:36;;;;;;;6.60;6.10;;;;;;;;;;5062823;28;20441;-79
2023/08/05 02:53:15;;;;;;;6.90;6.23;;;15.70;99.90;;;;;;5065079;28;20439;-78
2023/08/05 02:55:48;;;;;;;7.47;6.70;;;15.70;99.90;;;;;;5068718;28;21048;-80
2023/08/05 02:58:26;;;;;;;8.77;7.63;;;15.70;99.90;;;;;;5070190;28;20484;-78
2023/08/05 03:01:10;;;;;;;8.40;6.93;;;15.60;99.90;;;;;;5069109;28;20476;-77
2023/08/05 03:03:45;;;;;;;7.20;6.50;;;15.60;99.90;;;;;;5064677;28;20454;-78
2023/08/05 03:06:31;;;;;;;7.80;6.80;;;15.60;99.90;;;;;;5069887;28;20477;-77
2023/08/05 03:09:08;;;;;;;7.73;6.77;;;15.60;99.90;;;;;;5070312;28;20462;-78
2023/08/05 03:11:48;;;;;;;8.20;7.00;;;15.60;99.90;;;;;;5067923;28;20513;-79
2023/08/05 03:14:25;;;;;;;7.83;7.13;;;15.60;99.90;;;;;;5069902;28;20938;-80
2023/08/05 03:20:08;;;;;;;9.17;7.10;;;15.60;99.90;;;;;;5028553;28;20479;-79
2023/08/05 03:23:14;;;;;;;8.40;7.07;;;15.60;99.90;;;;;;5078093;28;20478;-78
2023/08/05 03:25:50;;;;;;;7.30;6.60;;;15.60;99.90;;;;;;5086531;28;20499;-79
2023/08/05 03:28:25;;;;;;;6.97;6.40;;;15.60;99.90;;;;;;5081293;28;20448;-79
2023/08/05 03:31:02;;;;;;;9.27;6.77;;;15.60;99.90;;;;;;5081105;28;20474;-79
2023/08/05 03:33:38;;;;;;;8.33;7.40;;;15.60;99.90;;;;;;5080304;28;20448;-79
2023/08/05 03:36:20;;;;;;;7.37;6.77;;;15.50;99.90;;;;;;5079662;28;20900;-78
2023/08/05 03:38:55;;;;;;;7.50;6.90;;;15.60;99.90;;;;;;5079410;28;20510;-78
2023/08/05 03:41:40;;;;;;;9.17;8.17;;;15.60;99.90;;;;;;5078941;28;20494;-80
2023/08/05 03:44:27;;;;;;;8.23;7.40;;;15.60;99.90;;;;;;5078256;28;20452;-78
2023/08/05 03:47:13;;;;;;;8.47;7.70;;;15.60;99.90;;;;;;5076487;28;20491;-78
2023/08/05 03:49:48;;;;;;;7.50;6.90;;;15.50;99.90;;;;;;5077178;28;20453;-79
2023/08/05 03:52:36;;;;;;;7.80;7.10;;;15.60;99.90;;;;;;5082866;28;20440;-80
2023/08/05 03:55:11;;;;;;;7.63;6.67;;;15.60;99.90;;;;;;5081247;28;20469;-78
2023/08/05 03:57:54;;;;;;;11.20;7.30;;;15.60;99.90;;;;;;5075476;28;20439;-79
2023/08/05 04:00:29;;;;;;;8.80;7.90;;;15.60;99.90;;;;;;5080356;28;20527;-78
2023/08/05 04:03:10;;;;;;;7.60;6.90;;;15.60;99.90;;;;;;5084172;28;20441;-79
2023/08/05 04:05:52;;;;;;;8.03;7.33;;;15.60;99.90;;;;;;5083388;28;20480;-79
2023/08/05 04:08:31;;;;;;;8.10;7.37;;;15.60;99.90;;;;;;5081182;28;20544;-79
2023/08/05 04:11:08;;;;;;;8.03;7.33;;;15.60;99.90;;;;;;5081862;28;20452;-79
2023/08/05 04:17:23;;;;;;;11.00;7.70;;;15.60;99.90;;;;;;5072253;28;20578;-79
2023/08/05 04:20:29;;;;;;;10.00;7.60;;;15.60;99.90;;;;;;5080419;28;20472;-79
2023/08/05 04:23:19;;;;;;;7.30;6.60;;;15.60;99.90;;;;;;5075101;28;20457;-78
2023/08/05 04:26:01;;;;;;;8.07;7.27;;;15.60;99.90;;;;;;5060777;28;20474;-80
2023/08/05 04:28:33;;;;;;;9.40;8.40;;;15.60;99.90;;;;;;5060625;28;20453;-78
2023/08/05 04:31:06;;;;;;;8.70;7.80;;;15.60;99.90;;;;;;5058778;28;20536;-79
2023/08/05 04:33:43;;;;;;;8.13;7.40;;;15.60;99.90;;;;;;5058575;28;20446;-79
2023/08/05 04:36:16;;;;;;;9.63;8.60;;;15.50;99.90;;;;;;5056982;28;20473;-79
2023/08/05 04:38:57;;;;;;;8.10;7.40;;;15.50;99.90;;;;;;5057591;28;20938;-79
2023/08/05 04:42:21;;;;;;;8.20;7.50;;;15.60;99.90;;;;;;5057867;28;20460;-79
2023/08/05 04:45:02;;;;;;;7.97;7.27;;;15.60;99.90;;;;;;5056863;28;20501;-79
2023/08/05 04:48:16;;;;;;;8.23;7.53;;;15.60;99.90;;;;;;5056199;28;20544;-78
2023/08/05 04:51:07;;;;;;;8.10;7.40;;;15.60;99.90;;;;;;5057038;28;20522;-78
2023/08/05 04:54:06;;;;;;;8.63;7.93;;;15.60;99.90;;;;;;5058877;28;20462;-78
2023/08/05 04:57:12;;;;;;;7.40;6.70;;;15.60;99.90;;;;;;4982593;28;20497;-77
2023/08/05 05:00:00;;;;;;;7.53;6.70;;;15.60;99.90;;;;;;5005649;28;20476;-78
2023/08/05 05:03:01;;;;;;;8.37;7.47;;;15.60;99.90;;;;;;5063471;28;20489;-79
2023/08/05 05:09:15;;;;;;;7.23;6.50;;;15.70;99.90;;;;;;5075367;28;20461;-79
2023/08/05 05:11:43;;;;;;;8.23;7.43;;;15.70;99.90;;;;;;5073112;28;20657;-78
2023/08/05 05:17:38;;;;;;;8.83;7.20;;;15.60;99.90;;;;;;5070928;28;20426;-79
2023/08/05 05:20:19;;;;;;;8.57;7.87;;;15.70;99.90;;;;;;5075045;28;20473;-77
2023/08/05 05:26:25;;;;;;;8.20;7.37;;;15.70;99.90;;;;;;5058612;28;20560;-78
2023/08/05 05:34:55;;;;;;;7.37;6.60;;;15.70;99.90;;;;;;5045843;28;20450;-78
2023/08/05 05:37:39;;;;;;;;;;;;;;;;;;;;;
2023/08/05 05:40:34;;;;;;;8.50;7.20;;;15.80;99.90;;;;;;5061698;28;20550;-79
2023/08/05 05:43:27;;;;;;;7.83;7.03;;;15.80;99.90;;;;;;5065851;28;20445;-78
2023/08/05 05:46:15;;;;;;;9.60;7.77;;;15.70;99.90;;;;;;5025773;28;20493;-79
2023/08/05 05:55:18;;;;;;;10.43;7.97;;;15.80;99.90;;;;;;5073026;28;20461;-79
2023/08/05 06:00:59;;;;;;;6.83;6.00;;;15.90;99.90;;;;;;5057042;28;20473;-78
2023/08/05 06:03:53;;;;;;;7.13;5.93;;;15.80;99.90;;;;;;5068941;28;20458;-78
2023/08/05 06:06:53;;;;;;;10.63;6.83;;;15.90;99.90;;;;;;5068728;28;20462;-79
2023/08/05 06:09:50;;;;;;;7.10;6.43;;;15.90;99.90;;;;;;5007337;28;20453;-80
2023/08/05 06:15:37;;;;;;;7.07;5.60;;;16.00;99.90;;;;;;5033556;28;20473;-77
2023/08/05 06:18:27;;;;;;;6.27;5.73;;;16.10;99.90;;;;;;5071870;28;20789;-80
2023/08/05 06:21:13;;;;;;;7.43;6.73;;;16.20;99.90;;;;;;5071763;28;20886;-80
2023/08/05 06:24:06;;;;;;;5.93;5.47;;;16.20;99.90;;;;;;5068598;28;20441;-79
2023/08/05 06:26:53;;;;;;;6.00;5.50;;;16.40;99.90;;;;;;5077435;28;20461;-78
2023/08/05 06:29:28;;;;;;;6.17;5.67;;;16.50;99.90;;;;;;5075556;28;20466;-78
2023/08/05 06:35:27;;;;;;;6.07;5.57;;;16.70;99.90;;;;;;5043162;28;20460;-80
2023/08/05 06:38:28;;;;;;;7.30;6.10;;;16.60;99.90;;;;;;5064865;28;20942;-78
2023/08/05 06:41:31;;;;;;;5.77;5.23;;;16.60;99.90;;;;;;5065858;28;20998;-79
2023/08/05 06:44:28;;;;;;;6.43;5.83;;;16.70;99.90;;;;;;5065298;28;20445;-78
2023/08/05 06:54:12;;;;;;;6.20;5.70;;;17.00;99.90;;;;;;5069350;28;20438;-78
2023/08/05 07:00:19;;;;;;;5.97;5.37;;;16.80;99.90;;;;;;5037122;28;20536;-80
2023/08/05 07:07:08;;;;;;;6.37;4.93;;;17.10;99.90;;;;;;4952220;28;20558;-79
2023/08/05 07:10:03;;;;;;;6.00;5.20;;;17.00;99.90;;;;;;5072397;28;20551;-78
2023/08/05 07:18:54;;;;;;;5.87;5.30;;;17.20;99.90;;;;;;5062964;28;20422;-78
2023/08/05 07:24:20;;;;;;;5.67;5.10;;;17.50;99.90;;;;;;5063162;28;20449;-79
2023/08/05 07:27:14;;;;;;;6.10;5.60;;;17.60;99.90;;;;;;5078558;28;20448;-76
2023/08/05 07:29:50;;;;;;;5.50;5.00;;;17.80;99.90;;;;;;5065027;28;20442;-77
2023/08/05 07:32:27;;;;;;;5.60;5.10;;;18.00;99.90;;;;;;5066558;28;21309;-78
2023/08/05 07:35:19;;;;;;;8.13;5.10;;;18.10;99.90;;;;;;5064597;28;20888;-79
2023/08/05 07:38:08;;;;;;;6.20;5.60;;;17.90;99.90;;;;;;5077107;28;20507;-78
2023/08/05 07:41:01;;;;;;;5.60;5.10;;;17.40;99.90;;;;;;5059887;28;20478;-78
2023/08/05 07:53:18;;;;;;;6.17;5.50;;;18.00;99.90;;;;;;5056216;28;20540;-76
2023/08/05 07:56:39;;;;;;;9.67;5.93;;;18.10;99.90;;;;;;5074800;28;20496;-78
2023/08/05 07:59:35;;;;;;;5.27;4.80;;;18.10;99.90;;;;;;5060801;28;20442;-78
2023/08/05 08:02:16;;;;;;;5.67;5.17;;;18.30;99.90;;;;;;5074312;28;20461;-78
2023/08/05 08:04:55;;;;;;;5.33;4.93;;;18.40;99.90;;;;;;5063765;28;20857;-78
2023/08/05 08:07:28;;;;;;;6.40;5.90;;;18.50;99.90;;;;;;5080076;28;20516;-77
2023/08/05 08:10:03;;;;;;;5.47;5.00;;;18.50;99.90;;;;;;5082745;28;20461;-78
2023/08/05 08:12:55;;;;;;;5.17;4.67;;;18.30;99.90;;;;;;5064388;28;20429;-79
2023/08/05 08:15:32;;;;;;;6.53;5.90;;;18.40;99.90;;;;;;5080682;28;20838;-78
2023/08/05 08:18:18;;;;;;;6.73;4.90;;;18.20;99.90;;;;;;5066311;28;20434;-80
2023/08/05 08:21:03;;;;;;;5.00;4.50;;;18.60;99.90;;;;;;5059728;28;20548;-77
2023/08/05 08:23:44;;;;;;;6.60;4.83;;;18.70;99.90;;;;;;5060304;28;20450;-77
2023/08/05 08:26:28;;;;;;;5.37;4.87;;;18.60;99.90;;;;;;5059501;28;20514;-79
2023/08/05 08:29:11;;;;;;;4.90;4.33;;;18.70;99.90;;;;;;5057780;28;20473;-77
2023/08/05 08:34:38;;;;;;;4.67;4.23;;;19.30;99.90;;;;;;5055287;28;20953;-78
2023/08/05 08:37:20;;;;;;;4.60;4.20;;;19.90;99.90;;;;;;5053124;28;20437;-79
2023/08/05 08:40:31;;;;;;;;;;;;;;;;;;;;;
2023/08/05 08:43:04;;;;;;;4.40;4.00;;;19.80;99.90;;;;;;5054784;28;20438;-79
2023/08/05 08:45:55;;;;;;;4.10;3.70;;;19.90;99.90;;;;;;5055111;28;21084;-77
2023/08/05 08:48:26;;;;;;;4.00;3.73;;;19.80;99.90;;;;;;5054845;28;20454;-78
2023/08/05 08:54:01;;;;;;;4.13;3.63;;;19.60;99.90;;;;;;5007400;28;20432;-78
2023/08/05 08:56:37;;;;;;;4.43;4.13;;;19.50;99.90;;;;;;5052498;28;20560;-78
2023/08/05 09:02:19;;;;;;;3.67;3.47;;;20.00;99.90;;;;;;5050846;28;20843;-78
2023/08/05 09:04:49;;;;;;;6.63;3.40;;;20.60;99.90;;;;;;5053978;28;20849;-78
2023/08/05 09:07:23;;;;;;;3.90;3.60;;;20.70;99.90;;;;;;5053813;28;20446;-78
2023/08/05 09:10:16;;;;;;;;;;;;;;;;;;;;;
2023/08/05 09:12:50;;;;;;;4.70;3.33;;;20.70;99.90;;;;;;5054331;28;20540;-78
2023/08/05 09:15:25;;;;;;;3.87;3.50;;;20.70;99.90;;;;;;5054521;28;20535;-78
2023/08/05 09:18:23;;;;;;;4.10;3.80;;;20.80;99.90;;;;;;5053097;28;20434;-77
2023/08/05 09:20:53;;;;;;;3.40;3.20;;;20.80;99.90;;;;;;5055792;28;20476;-77
2023/08/05 09:23:21;;;;;;;4.10;2.90;;;21.30;99.90;;;;;;5072763;28;20468;-78
2023/08/05 09:25:50;;;;;;;3.87;3.57;;;21.50;99.90;;;;;;5074602;28;20498;-78
2023/08/05 09:28:31;;;;;;;3.60;3.40;;;22.00;99.90;;;;;;5074624;28;20443;-78
2023/08/05 09:31:19;;;;;;;2.80;2.70;;;22.30;99.90;;;;;;5076150;28;20445;-79
2023/08/05 09:33:50;;;;;;;3.47;3.27;;;22.30;99.90;;;;;;5074627;28;20543;-79
2023/08/05 09:36:22;;;;;;;3.93;3.53;;;22.40;99.90;;;;;;5075006;28;20469;-78
2023/08/05 09:39:16;;;;;;;4.47;3.03;;;22.50;99.90;;;;;;5074557;28;20467;-77
2023/08/05 09:41:51;;;;;;;3.87;3.57;;;22.10;99.90;;;;;;5077876;28;20476;-77
2023/08/05 09:44:29;;;;;;;3.73;3.33;;;21.80;99.90;;;;;;5077530;28;20519;-77
2023/08/05 09:46:59;;;;;;;3.20;3.00;;;21.90;99.90;;;;;;5076455;28;20476;-78
2023/08/05 09:49:49;;;;;;;2.80;2.60;;;21.60;99.90;;;;;;5075603;28;20627;-76
2023/08/05 09:52:35;;;;;;;3.30;3.00;;;21.90;99.90;;;;;;5077357;28;20504;-77
2023/08/05 09:55:22;;;;;;;3.10;2.90;;;21.90;99.90;;;;;;5078798;28;20476;-77
2023/08/05 09:57:56;;;;;;;2.83;2.63;;;22.20;99.90;;;;;;5080221;28;20444;-78
2023/08/05 10:00:24;;;;;;;2.63;2.40;;;22.30;99.90;;;;;;5079501;28;20480;-79
2023/08/05 10:02:52;;;;;;;3.03;2.87;;;21.90;99.90;;;;;;5079274;28;20487;-79
2023/08/05 10:05:32;;;;;;;2.50;2.30;;;21.30;99.90;;;;;;5083599;28;20473;-78
2023/08/05 10:08:05;;;;;;;4.30;2.53;;;21.30;99.90;;;;;;5090299;28;20448;-78
2023/08/05 10:10:37;;;;;;;2.87;2.57;;;21.10;99.90;;;;;;5092861;28;20448;-78
2023/08/05 10:13:19;;;;;;;2.47;2.37;;;20.70;99.90;;;;;;5092054;28;20441;-80
2023/08/05 10:15:56;;;;;;;2.57;2.47;;;21.20;99.90;;;;;;5092751;28;20483;-78
2023/08/05 10:18:37;;;;;;;3.07;2.87;;;21.30;99.90;;;;;;5085666;28;20438;-78
2023/08/05 10:21:09;;;;;;;3.57;3.10;;;21.30;99.90;;;;;;5085190;28;20468;-78
2023/08/05 10:23:41;;;;;;;3.27;3.07;;;21.60;99.90;;;;;;5065382;28;20446;-76
2023/08/05 10:26:32;;;;;;;3.67;3.37;;;21.70;99.90;;;;;;5065168;28;20473;-78
2023/08/05 10:29:29;;;;;;;3.57;2.80;;;22.10;99.90;;;;;;5065617;28;20442;-78
2023/08/05 10:35:38;;;;;;;3.30;2.63;;;21.50;99.90;;;;;;5055152;28;20504;-80
2023/08/05 10:38:16;;;;;;;2.50;2.40;;;21.20;99.90;;;;;;5066322;28;20458;-78
2023/08/05 10:40:49;;;;;;;2.57;2.37;;;21.60;99.90;;;;;;5064436;28;20512;-77
2023/08/05 10:43:36;;;;;;;3.20;2.87;;;21.90;99.90;;;;;;5061736;28;20472;-79
2023/08/05 10:46:17;;;;;;;2.37;2.27;;;21.60;99.90;;;;;;5063597;28;20487;-78
2023/08/05 10:51:57;;;;;;;2.67;2.27;;;21.30;99.90;;;;;;5062875;28;20504;-79
2023/08/05 10:54:31;;;;;;;2.40;2.30;;;21.30;99.90;;;;;;5061818;28;20505;-79
2023/08/05 10:57:18;;;;;;;2.40;2.30;;;21.70;99.90;;;;;;5062494;28;20449;-78
2023/08/05 11:00:24;;;;;;;2.80;2.60;;;21.50;99.90;;;;;;5062290;28;20513;-80
2023/08/05 11:03:46;;;;;;;2.30;2.13;;;21.90;99.90;;;;;;4978814;28;20457;-80
2023/08/05 11:09:45;;;;;;;2.50;2.40;;;21.60;99.90;;;;;;5058704;28;20463;-78
2023/08/05 11:12:23;;;;;;;2.30;2.20;;;21.90;99.90;;;;;;5062555;28;20552;-77
2023/08/05 11:14:52;;;;;;;2.73;2.63;;;22.10;99.90;;;;;;5060053;28;20627;-78
2023/08/05 11:17:40;;;;;;;3.03;2.83;;;22.40;99.90;;;;;;5061924;28;20541;-77
2023/08/05 11:20:35;;;;;;;;;;;;;;;;;;;;;
2023/08/05 11:23:20;;;;;;;2.70;2.60;;;22.60;99.90;;;;;;5081160;28;20504;-77
2023/08/05 11:25:54;;;;;;;2.33;2.23;;;22.80;99.90;;;;;;5084150;28;20470;-77
2023/08/05 11:28:31;;;;;;;3.27;2.43;;;22.80;99.90;;;;;;5087597;28;20453;-79
2023/08/05 11:31:01;;;;;;;3.27;2.97;;;22.80;99.90;;;;;;5086188;28;20516;-79
2023/08/05 11:33:33;;;;;;;2.77;2.60;;;22.80;99.90;;;;;;5080406;28;20448;-78
2023/08/05 11:36:00;;;;;;;3.00;2.80;;;22.80;99.90;;;;;;5077537;28;20486;-79
2023/08/05 11:38:29;;;;;;;2.87;2.67;;;22.90;99.90;;;;;;5076560;28;20456;-79
2023/08/05 11:41:03;;;;;;;2.80;2.60;;;22.80;99.90;;;;;;5076219;28;20500;-78
2023/08/05 11:43:35;;;;;;;3.63;3.33;;;22.80;99.90;;;;;;5076854;28;20460;-78
2023/08/05 11:46:03;;;;;;;3.53;3.20;;;22.50;99.90;;;;;;5076372;28;20745;-78
2023/08/05 11:48:32;;;;;;;2.97;2.77;;;22.70;99.90;;;;;;5076099;28;20429;-79
2023/08/05 11:51:06;;;;;;;3.50;3.20;;;23.00;99.90;;;;;;5075610;28;20448;-79
2023/08/05 11:53:39;;;;;;;3.13;2.83;;;23.10;99.90;;;;;;5074899;28;20531;-78
2023/08/05 11:56:28;;;;;;;2.70;2.60;;;23.20;99.90;;;;;;5074996;28;20449;-78
2023/08/05 11:59:00;;;;;;;3.03;2.83;;;23.30;99.90;;;;;;5075131;28;20440;-77
2023/08/05 12:01:49;;;;;;;3.23;3.00;;;23.50;99.90;;;;;;5075074;28;20575;-79
2023/08/05 12:04:20;;;;;;;2.70;2.50;;;23.70;99.90;;;;;;5074167;28;20472;-77
2023/08/05 12:06:48;;;;;;;2.97;2.77;;;24.00;99.90;;;;;;5073665;28;20433;-78
2023/08/05 12:09:16;;;;;;;2.90;2.80;;;24.10;99.90;;;;;;5074130;28;20463;-79
2023/08/05 12:11:48;;;;;;;3.17;2.77;;;24.30;99.90;;;;;;5075493;28;20425;-78
2023/08/05 12:14:16;;;;;;;2.90;2.70;;;24.50;99.90;;;;;;5077316;28;20436;-80
2023/08/05 12:16:52;;;;;;;2.77;2.57;;;24.30;99.90;;;;;;5077941;28;20461;-79
2023/08/05 12:19:20;;;;;;;3.07;2.83;;;24.30;99.90;;;;;;5080218;28;20456;-76
2023/08/05 12:21:51;;;;;;;2.90;2.70;;;24.30;99.90;;;;;;5082630;28;20522;-77
2023/08/05 12:24:18;;;;;;;4.90;3.03;;;24.20;99.90;;;;;;5079727;28;20561;-80
2023/08/05 12:26:51;;;;;;;2.90;2.70;;;24.20;99.90;;;;;;5077449;28;20444;-79
2023/08/05 12:29:21;;;;;;;2.90;2.80;;;24.00;99.90;;;;;;5077501;28;20431;-78
2023/08/05 12:31:53;;;;;;;3.33;3.13;;;24.00;99.90;;;;;;5076053;28;20945;-77
2023/08/05 12:34:20;;;;;;;2.80;2.60;;;23.90;99.90;;;;;;5075390;28;20497;-79
2023/08/05 12:36:51;;;;;;;3.20;3.00;;;23.90;99.90;;;;;;5074772;28;20448;-77
2023/08/05 12:45:27;;;;;;;3.20;3.00;;;24.00;99.90;;;;;;5077903;28;20531;-78
2023/08/05 12:48:14;;;;;;;2.90;2.70;;;23.50;99.90;;;;;;5079677;28;20441;-77
2023/08/05 12:50:50;;;;;;;3.30;3.00;;;23.40;99.90;;;;;;5078159;28;20463;-78
2023/08/05 12:53:27;;;;;;;2.70;2.60;;;23.60;99.90;;;;;;5077855;28;20887;-78
2023/08/05 12:56:00;;;;;;;3.13;2.93;;;23.60;99.90;;;;;;5077861;28;20452;-77
2023/08/05 12:58:34;;;;;;;2.87;2.70;;;23.50;99.90;;;;;;5077621;28;20472;-80
2023/08/05 13:01:09;;;;;;;2.57;2.47;;;23.20;99.90;;;;;;5077396;28;20459;-80
2023/08/05 13:03:37;;;;;;;3.17;2.93;;;22.90;99.90;;;;;;5075681;28;20452;-81
2023/08/05 13:06:06;;;;;;;4.40;3.33;;;23.00;99.90;;;;;;5077454;28;20475;-78
2023/08/05 13:08:38;;;;;;;2.80;2.60;;;23.20;99.90;;;;;;5076521;28;20424;-79
2023/08/05 13:11:09;;;;;;;3.00;2.80;;;22.90;99.90;;;;;;5074976;28;20460;-80
2023/08/05 13:13:45;;;;;;;2.87;2.70;;;22.80;99.90;;;;;;5073077;28;20437;-80
2023/08/05 13:16:38;;;;;;;4.90;3.23;;;22.70;99.90;;;;;;5075080;28;20552;-77
2023/08/05 13:19:12;;;;;;;3.43;3.20;;;22.50;99.90;;;;;;5078764;28;20435;-80
2023/08/05 13:22:10;;;;;;;3.30;3.00;;;22.50;99.90;;;;;;5078223;28;20483;-79
2023/08/05 13:24:49;;;;;;;3.40;3.20;;;22.50;99.90;;;;;;5078378;28;20430;-78
2023/08/05 13:27:23;;;;;;;2.80;2.70;;;22.60;99.90;;;;;;5075698;28;20452;-78
2023/08/05 13:30:14;;;;;;;3.17;2.90;;;22.40;99.90;;;;;;5075269;28;20473;-80
2023/08/05 13:32:46;;;;;;;3.07;2.73;;;22.40;99.90;;;;;;5074399;28;20459;-79
2023/08/05 13:35:26;;;;;;;2.97;2.77;;;22.60;99.90;;;;;;5074154;28;20457;-78
2023/08/05 13:38:07;;;;;;;2.67;2.47;;;22.60;99.90;;;;;;5077191;28;20471;-77
2023/08/05 13:40:46;;;;;;;2.83;2.73;;;22.70;99.90;;;;;;5075481;28;20441;-77
2023/08/05 13:43:20;;;;;;;3.10;2.77;;;22.80;99.90;;;;;;5074446;28;20500;-79
2023/08/05 13:46:04;;;;;;;3.83;2.90;;;22.50;99.90;;;;;;5074825;28;20460;-79
2023/08/05 13:48:36;;;;;;;3.40;3.20;;;22.60;99.90;;;;;;5074341;28;20418;-78
2023/08/05 13:51:05;;;;;;;2.70;2.50;;;22.40;99.90;;;;;;5074909;28;20459;-79
2023/08/05 13:53:33;;;;;;;3.53;3.00;;;22.70;99.90;;;;;;5073934;28;20551;-78
2023/08/05 13:56:11;;;;;;;2.93;2.73;;;22.80;99.90;;;;;;5073635;28;20563;-78
2023/08/05 13:58:44;;;;;;;3.17;2.80;;;22.70;99.90;;;;;;5073348;28;20452;-80
2023/08/05 14:01:16;;;;;;;2.70;2.60;;;22.60;99.90;;;;;;5073670;28;20452;-78
2023/08/05 14:03:56;;;;;;;2.47;2.37;;;22.40;99.90;;;;;;5072366;28;20453;-77
2023/08/05 14:06:27;;;;;;;2.83;2.50;;;22.40;99.90;;;;;;5072163;28;20547;-77
2023/08/05 14:09:02;;;;;;;3.00;2.80;;;22.40;99.90;;;;;;5072595;28;20444;-78
2023/08/05 14:11:43;;;;;;;4.13;3.10;;;22.30;99.90;;;;;;5074317;28;20454;-79
2023/08/05 14:14:16;;;;;;;3.20;3.00;;;22.30;99.90;;;;;;5073622;28;20510;-80
2023/08/05 14:16:49;;;;;;;3.17;2.97;;;22.40;99.90;;;;;;5074412;28;20495;-78
2023/08/05 14:19:20;;;;;;;3.20;3.00;;;22.40;99.90;;;;;;5074716;28;20452;-79
2023/08/05 14:22:06;;;;;;;3.67;2.87;;;22.40;99.90;;;;;;5074756;28;20476;-79
2023/08/05 14:24:36;;;;;;;2.67;2.40;;;22.60;99.90;;;;;;5073490;28;20443;-78
2023/08/05 14:27:08;;;;;;;2.80;2.70;;;22.80;99.90;;;;;;5074977;28;20451;-77
2023/08/05 14:29:36;;;;;;;3.30;3.10;;;23.00;99.90;;;;;;5076050;28;20476;-78
2023/08/05 14:32:15;;;;;;;2.80;2.63;;;23.00;99.90;;;;;;5076109;28;20449;-79
2023/08/05 14:34:43;;;;;;;2.53;2.43;;;23.20;99.90;;;;;;5074458;28;20545;-79
2023/08/05 14:37:11;;;;;;;2.77;2.57;;;23.10;99.90;;;;;;5073708;28;20440;-77
2023/08/05 14:39:38;;;;;;;3.50;3.20;;;23.50;99.90;;;;;;5075799;28;20454;-77
2023/08/05 14:42:13;;;;;;;3.17;2.87;;;23.40;99.90;;;;;;5076650;28;20482;-79
2023/08/05 14:44:45;;;;;;;2.90;2.70;;;23.50;99.90;;;;;;5076934;28;20486;-78
2023/08/05 14:47:26;;;;;;;4.30;3.00;;;23.20;99.90;;;;;;5077430;28;20449;-78
2023/08/05 14:50:03;;;;;;;3.37;3.17;;;23.40;99.90;;;;;;5077858;28;20544;-78
2023/08/05 14:52:39;;;;;;;3.47;3.07;;;23.90;99.90;;;;;;5078765;28;20476;-78
2023/08/05 14:55:10;;;;;;;3.07;2.87;;;24.30;99.90;;;;;;5079317;28;20455;-80
2023/08/05 14:57:42;;;;;;;5.00;3.13;;;24.80;99.90;;;;;;5078808;28;20453;-80
2023/08/05 15:00:10;;;;;;;2.70;2.50;;;25.00;99.90;;;;;;5078918;28;20456;-80
2023/08/05 15:02:45;;;;;;;2.83;2.63;;;25.00;99.90;;;;;;5078217;28;20603;-78
2023/08/05 15:05:19;;;;;;;2.80;2.60;;;24.90;99.90;;;;;;5079054;28;20472;-78
2023/08/05 15:07:51;;;;;;;2.60;2.40;;;24.90;99.90;;;;;;5081622;28;20515;-78
2023/08/05 15:10:25;;;;;;;2.60;2.50;;;25.50;99.90;;;;;;5085920;28;20491;-78
2023/08/05 15:12:58;;;;;;;3.03;2.83;;;25.70;99.90;;;;;;5091980;28;20473;-79
2023/08/05 15:15:26;;;;;;;3.17;2.73;;;26.00;99.90;;;;;;5090791;28;20968;-79
2023/08/05 15:17:57;;;;;;;7.67;3.27;;;26.30;99.90;;;;;;5091247;28;20449;-78
2023/08/05 15:20:24;;;;;;;2.70;2.50;;;26.50;99.90;;;;;;5090450;28;20453;-80
2023/08/05 15:22:52;;;;;;;3.20;3.00;;;26.70;99.90;;;;;;5076128;28;20539;-80
2023/08/05 15:25:23;;;;;;;4.03;3.63;;;26.90;99.90;;;;;;5070974;28;20465;-80
2023/08/05 15:27:50;;;;;;;3.97;2.83;;;26.80;99.90;;;;;;5071402;28;20473;-78
2023/08/05 15:30:19;;;;;;;2.70;2.47;;;26.80;99.90;;;;;;5072931;28;20510;-79
2023/08/05 15:32:47;;;;;;;2.63;2.33;;;26.80;99.90;;;;;;5072471;28;20515;-78
2023/08/05 15:35:16;;;;;;;2.90;2.67;;;26.40;99.90;;;;;;5071122;28;20988;-78
2023/08/05 15:37:44;;;;;;;2.43;2.33;;;26.50;99.90;;;;;;5073045;28;20440;-78
2023/08/05 15:40:12;;;;;;;3.07;2.87;;;26.40;99.90;;;;;;5073444;28;20429;-78
2023/08/05 15:42:43;;;;;;;3.10;2.90;;;26.80;99.90;;;;;;5072626;28;20469;-78
2023/08/05 15:45:17;;;;;;;3.00;2.80;;;26.20;99.90;;;;;;5072473;28;20492;-78
2023/08/05 15:47:47;;;;;;;3.03;2.80;;;26.00;99.90;;;;;;5072987;28;20429;-77
2023/08/05 15:50:20;;;;;;;3.20;2.90;;;26.20;99.90;;;;;;5072455;28;20461;-79
2023/08/05 15:52:51;;;;;;;3.00;2.80;;;25.80;99.90;;;;;;5071988;28;20448;-78
2023/08/05 15:55:19;;;;;;;2.97;2.00;;;26.20;99.90;;;;;;5072137;28;20524;-78
2023/08/05 15:57:53;;;;;;;2.70;2.50;;;26.80;99.90;;;;;;5072739;28;20457;-78
2023/08/05 16:00:30;;;;;;;2.43;2.33;;;27.20;99.90;;;;;;5072622;28;20452;-77
2023/08/05 16:02:58;;;;;;;2.60;2.40;;;27.30;99.90;;;;;;5072213;28;20473;-81
2023/08/05 16:05:27;;;;;;;2.93;2.60;;;26.80;99.90;;;;;;5072683;28;20453;-77
2023/08/05 16:07:55;;;;;;;4.03;2.50;;;26.40;99.90;;;;;;5072660;28;20475;-79
2023/08/05 16:10:23;;;;;;;4.43;2.60;;;26.10;99.90;;;;;;5072859;28;20449;-78
2023/08/05 16:12:59;;;;;;;3.00;2.70;;;26.00;99.90;;;;;;5072281;28;20493;-79
2023/08/05 16:15:41;;;;;;;2.90;2.70;;;25.60;99.90;;;;;;5072462;28;20472;-78
2023/08/05 16:18:11;;;;;;;2.60;2.40;;;25.50;99.90;;;;;;5072567;28;20497;-78